Terminal Aerodrome Forecast
Issued by NWS

Home | Current Version | Previous Version | Text Only | Print | Product List | Glossary Off
Versions: 1 2 3 4 5 6 7 8 9 10 11 12 13 14 15 16 17 18 19 20 21 22 23 24 25 26

000
FTUS45 KGGW 241100
TAFOLF
TAF
KOLF 241126Z 2412/2512 01015KT 3SM -RA BR OVC020
     FM241500 36013KT 3SM RA BR OVC015
     FM241800 33015KT 6SM -RA OVC030
     FM250000 31015KT P6SM VCSH OVC030
     FM250600 31010KT P6SM OVC040=

USA.gov is the U.S. government's official web portal to all federal, state and local government web resources and services.